createdAt,value
2018-02-22T00:00:42.725Z,87.00
2018-02-22T00:03:22.356Z,87.20
2018-02-22T00:06:01.253Z,87.10
2018-02-22T00:08:42.286Z,87.00
2018-02-22T00:11:17.064Z,87.20
2018-02-22T00:13:59.977Z,87.40
2018-02-22T00:16:38.524Z,87.60
2018-02-22T00:19:17.227Z,87.60
2018-02-22T00:21:57.906Z,87.60
2018-02-22T00:24:40.351Z,87.80
2018-02-22T00:27:20.602Z,88.20
2018-02-22T00:29:59.649Z,88.20
2018-02-22T00:32:37.548Z,88.10
2018-02-22T00:35:17.807Z,88.20
2018-02-22T00:37:56.633Z,88.30
2018-02-22T00:40:32.212Z,88.30
2018-02-22T00:43:09.362Z,88.30
2018-02-22T00:45:48.357Z,88.70
2018-02-22T00:48:28.238Z,88.60
2018-02-22T00:51:04.478Z,88.90
2018-02-22T00:53:37.890Z,89.10
2018-02-22T00:56:13.334Z,89.10
2018-02-22T00:58:52.436Z,89.10
2018-02-22T01:01:30.912Z,89.20
2018-02-22T01:04:08.924Z,89.30
2018-02-22T01:06:48.358Z,89.30
2018-02-22T01:09:27.166Z,89.40
2018-02-22T01:12:07.325Z,89.50
2018-02-22T01:14:46.674Z,89.60
2018-02-22T01:17:26.024Z,89.70
2018-02-22T01:20:04.972Z,89.60
2018-02-22T01:22:44.508Z,89.50
2018-02-22T01:25:23.021Z,89.50
2018-02-22T01:28:01.231Z,89.50
2018-02-22T01:30:41.953Z,89.40
2018-02-22T01:33:21.568Z,89.40
2018-02-22T01:36:01.869Z,89.70
2018-02-22T01:38:42.539Z,89.70
2018-02-22T01:41:24.739Z,89.60
2018-02-22T01:44:08.241Z,89.50
2018-02-22T01:46:49.373Z,89.30
2018-02-22T01:49:29.112Z,89.30
2018-02-22T01:52:07.399Z,89.10
2018-02-22T01:54:40.936Z,88.90
2018-02-22T01:57:20.471Z,89.00
2018-02-22T01:59:59.275Z,89.00
2018-02-22T02:02:34.390Z,89.00
2018-02-22T02:05:13.497Z,88.90
2018-02-22T02:07:54.948Z,88.90
2018-02-22T02:10:34.376Z,88.80
2018-02-22T02:13:13.656Z,89.10
2018-02-22T02:15:52.483Z,89.00
2018-02-22T02:18:33.222Z,89.20
2018-02-22T02:21:10.782Z,89.20
2018-02-22T02:23:48.022Z,89.30
2018-02-22T02:26:27.258Z,89.40
2018-02-22T02:29:05.275Z,89.30
2018-02-22T02:31:45.916Z,89.20
2018-02-22T02:34:25.181Z,89.40
2018-02-22T02:37:03.271Z,89.40
2018-02-22T02:39:43.251Z,89.50
2018-02-22T02:42:21.633Z,89.40
2018-02-22T02:44:57.615Z,89.50
2018-02-22T02:47:36.382Z,89.40
2018-02-22T02:50:15.429Z,89.40
2018-02-22T02:52:58.616Z,89.40
2018-02-22T02:55:39.066Z,89.30
2018-02-22T02:58:18.123Z,89.10
2018-02-22T03:00:57.812Z,89.10
2018-02-22T03:03:37.029Z,89.10
2018-02-22T03:06:15.918Z,89.20
2018-02-22T03:08:53.681Z,89.10
2018-02-22T03:11:31.465Z,89.20
2018-02-22T03:14:11.244Z,89.10
2018-02-22T03:16:49.628Z,89.40
2018-02-22T03:19:29.498Z,89.30
2018-02-22T03:22:08.512Z,89.50
2018-02-22T03:24:48.218Z,89.50
2018-02-22T03:27:27.026Z,89.60
2018-02-22T03:30:05.585Z,89.60
2018-02-22T03:32:38.204Z,89.50
2018-02-22T03:35:16.712Z,89.70
2018-02-22T03:37:54.202Z,89.90
2018-02-22T03:40:32.091Z,89.70
2018-02-22T03:43:11.522Z,90.00
2018-02-22T03:45:44.713Z,90.00
2018-02-22T03:48:24.867Z,89.80
2018-02-22T03:50:59.003Z,89.90
2018-02-22T03:53:37.378Z,90.00
2018-02-22T03:56:19.420Z,89.90
2018-02-22T03:58:58.321Z,90.00
2018-02-22T04:01:39.728Z,90.00
2018-02-22T04:04:17.916Z,90.10
2018-02-22T04:06:56.024Z,90.10
2018-02-22T04:09:37.697Z,90.10
2018-02-22T04:12:17.295Z,90.10
2018-02-22T04:14:55.612Z,90.10
2018-02-22T04:17:36.515Z,90.30
2018-02-22T04:20:14.468Z,90.30
2018-02-22T04:22:54.934Z,90.20
2018-02-22T04:25:34.120Z,90.30
2018-02-22T04:28:12.994Z,90.20
2018-02-22T04:30:51.994Z,90.20
2018-02-22T04:33:31.454Z,90.20
2018-02-22T04:36:10.770Z,90.20
2018-02-22T04:38:49.881Z,90.10
2018-02-22T04:41:27.237Z,90.10
2018-02-22T04:44:06.133Z,90.20
2018-02-22T04:46:46.485Z,90.20
2018-02-22T04:49:25.593Z,90.10
2018-02-22T04:52:04.724Z,90.20
2018-02-22T04:54:44.061Z,90.20
2018-02-22T04:57:21.147Z,90.30
2018-02-22T04:59:54.670Z,90.40
2018-02-22T05:02:27.283Z,90.40
2018-02-22T05:05:06.857Z,90.50
2018-02-22T05:07:46.789Z,90.50
2018-02-22T05:10:20.735Z,90.50
2018-02-22T05:12:59.022Z,90.50
2018-02-22T05:15:37.625Z,90.50
2018-02-22T05:18:14.826Z,90.60
2018-02-22T05:20:53.719Z,90.60
2018-02-22T05:23:30.887Z,90.60
2018-02-22T05:26:10.185Z,90.60
2018-02-22T05:28:47.104Z,90.60
2018-02-22T05:31:28.744Z,90.60
2018-02-22T05:34:11.036Z,90.50
2018-02-22T05:36:51.890Z,90.90
2018-02-22T05:39:31.717Z,90.60
2018-02-22T05:42:10.979Z,91.00
2018-02-22T05:44:48.310Z,90.70
2018-02-22T05:47:28.695Z,90.70
2018-02-22T05:50:08.923Z,90.70
2018-02-22T05:52:46.816Z,90.70
2018-02-22T05:55:23.618Z,90.80
2018-02-22T05:58:00.999Z,90.80
2018-02-22T06:00:38.116Z,90.70
2018-02-22T06:03:16.589Z,90.80
2018-02-22T06:05:56.874Z,90.80
2018-02-22T06:08:29.888Z,90.70
2018-02-22T06:11:06.974Z,90.70
2018-02-22T06:13:40.594Z,90.80
2018-02-22T06:16:20.040Z,90.80
2018-02-22T06:18:55.239Z,90.90
2018-02-22T06:21:29.381Z,91.00
2018-02-22T06:24:08.715Z,90.90
2018-02-22T06:26:48.231Z,90.90
2018-02-22T06:29:27.128Z,90.90
2018-02-22T06:32:06.988Z,91.00
2018-02-22T06:34:40.725Z,91.10
2018-02-22T06:37:15.869Z,91.10
2018-02-22T06:39:53.535Z,91.00
2018-02-22T06:42:31.979Z,91.00
2018-02-22T06:45:11.481Z,91.00
2018-02-22T06:47:48.839Z,91.00
2018-02-22T06:50:27.963Z,91.00
2018-02-22T06:53:06.524Z,91.10
2018-02-22T06:55:46.599Z,91.10
2018-02-22T06:58:19.596Z,91.10
2018-02-22T07:00:57.603Z,90.90
2018-02-22T07:03:36.523Z,90.90
2018-02-22T07:06:09.097Z,90.90
2018-02-22T07:08:47.827Z,90.90
2018-02-22T07:11:21.056Z,90.90
2018-02-22T07:14:00.158Z,90.90
2018-02-22T07:16:38.975Z,91.10
2018-02-22T07:19:15.935Z,91.00
2018-02-22T07:21:56.050Z,90.90
2018-02-22T07:24:35.248Z,90.70
2018-02-22T07:27:13.563Z,90.70
2018-02-22T07:29:52.624Z,90.80
2018-02-22T07:32:35.038Z,90.60
2018-02-22T07:35:16.137Z,90.50
2018-02-22T07:37:54.556Z,90.60
2018-02-22T07:40:34.551Z,90.30
2018-02-22T07:43:12.970Z,90.30
2018-02-22T07:45:47.571Z,90.20
2018-02-22T07:48:28.282Z,89.90
2018-02-22T07:51:06.767Z,89.50
2018-02-22T07:53:47.669Z,89.50
2018-02-22T07:56:23.026Z,88.10
2018-02-22T07:59:01.300Z,88.10
2018-02-22T08:01:39.682Z,87.80
2018-02-22T08:04:22.310Z,87.70
2018-02-22T08:07:02.643Z,87.30
2018-02-22T08:09:43.517Z,87.50
2018-02-22T08:12:20.902Z,87.20
2018-02-22T08:15:03.964Z,87.00
2018-02-22T08:17:44.824Z,86.10
2018-02-22T08:20:20.714Z,85.70
2018-02-22T08:23:04.201Z,84.70
2018-02-22T08:25:44.364Z,84.60
2018-02-22T08:28:24.696Z,84.20
2018-02-22T08:31:03.060Z,83.20
2018-02-22T08:33:40.734Z,82.20
2018-02-22T08:36:23.617Z,80.90
2018-02-22T08:39:05.928Z,79.70
2018-02-22T08:41:49.016Z,78.00
2018-02-22T08:44:22.797Z,77.20
2018-02-22T08:46:58.665Z,76.50
2018-02-22T08:49:38.071Z,74.90
2018-02-22T08:52:15.696Z,74.80
2018-02-22T08:54:50.996Z,73.60
2018-02-22T08:57:32.674Z,72.00
2018-02-22T09:00:15.724Z,68.80
2018-02-22T09:02:53.190Z,64.40
2018-02-22T09:05:35.476Z,62.40
2018-02-22T09:08:17.942Z,59.80
2018-02-22T09:10:57.877Z,56.70
2018-02-22T09:13:40.960Z,56.70
2018-02-22T09:16:24.879Z,56.20
2018-02-22T09:19:09.094Z,56.40
2018-02-22T09:21:49.528Z,56.50
2018-02-22T09:24:32.695Z,55.90
2018-02-22T09:27:10.585Z,53.20
2018-02-22T09:29:47.755Z,52.50
2018-02-22T09:32:28.336Z,52.40
2018-02-22T09:35:11.064Z,53.40
2018-02-22T09:37:52.417Z,52.50
2018-02-22T09:40:30.191Z,53.90
2018-02-22T09:43:09.238Z,55.50
2018-02-22T09:45:48.127Z,54.10
2018-02-22T09:48:26.625Z,53.40
2018-02-22T09:51:06.133Z,52.20
2018-02-22T09:53:49.823Z,51.30
2018-02-22T09:56:31.953Z,51.10
2018-02-22T09:59:09.288Z,52.30
2018-02-22T10:01:48.815Z,51.00
2018-02-22T10:04:29.120Z,50.80
2018-02-22T10:07:06.077Z,50.70
2018-02-22T10:09:46.220Z,49.60
2018-02-22T10:12:27.717Z,49.60
2018-02-22T10:15:09.167Z,48.60
2018-02-22T10:17:47.861Z,50.40
2018-02-22T10:20:26.631Z,50.50
2018-02-22T10:23:07.704Z,48.70
2018-02-22T10:25:52.053Z,48.40
2018-02-22T10:28:34.233Z,48.30
2018-02-22T10:31:14.461Z,48.20
2018-02-22T10:34:00.095Z,50.90
2018-02-22T10:36:33.507Z,50.60
2018-02-22T10:39:24.432Z,47.30
2018-02-22T10:42:04.244Z,47.00
2018-02-22T10:44:43.624Z,47.40
2018-02-22T10:47:23.045Z,47.40
2018-02-22T10:50:01.754Z,49.30
2018-02-22T10:52:35.818Z,45.80
2018-02-22T10:55:14.405Z,45.80
2018-02-22T10:57:54.746Z,43.80
2018-02-22T11:00:36.877Z,41.90
2018-02-22T11:03:10.215Z,42.50
2018-02-22T11:05:47.808Z,41.20
2018-02-22T11:08:31.476Z,41.60
2018-02-22T11:11:08.892Z,41.50
2018-02-22T11:13:46.467Z,39.90
2018-02-22T11:16:27.890Z,42.90
2018-02-22T11:19:01.732Z,47.50
2018-02-22T11:21:41.320Z,43.60
2018-02-22T11:24:20.152Z,43.50
2018-02-22T11:26:57.901Z,43.00
2018-02-22T11:29:35.572Z,46.50
2018-02-22T11:32:17.003Z,46.50
2018-02-22T11:34:55.572Z,47.00
2018-02-22T11:37:38.188Z,45.90
2018-02-22T11:40:20.137Z,49.40
2018-02-22T11:43:02.295Z,49.40
2018-02-22T11:45:37.729Z,46.90
2018-02-22T11:48:14.821Z,44.70
2018-02-22T11:50:56.076Z,43.70
2018-02-22T11:53:37.652Z,43.70
2018-02-22T11:56:17.378Z,45.10
2018-02-22T11:59:00.511Z,43.90
2018-02-22T12:01:40.229Z,41.60
2018-02-22T12:04:19.375Z,41.10
2018-02-22T12:06:57.502Z,41.30
2018-02-22T12:09:39.785Z,40.30
2018-02-22T12:12:15.948Z,38.70
2018-02-22T12:14:54.067Z,40.30
2018-02-22T12:17:34.414Z,42.30
2018-02-22T12:20:11.468Z,41.70
2018-02-22T12:22:46.348Z,43.40
2018-02-22T12:25:27.559Z,43.40
2018-02-22T12:28:06.282Z,41.90
2018-02-22T12:30:46.377Z,39.90
2018-02-22T12:33:27.374Z,40.40
2018-02-22T12:36:12.841Z,41.30
2018-02-22T12:38:54.572Z,39.50
2018-02-22T12:41:36.736Z,41.10
2018-02-22T12:44:19.483Z,41.30
2018-02-22T12:46:58.539Z,40.50
2018-02-22T12:49:34.874Z,43.00
2018-02-22T12:52:10.682Z,43.00
2018-02-22T12:54:53.103Z,42.80
2018-02-22T12:57:36.679Z,43.30
2018-02-22T13:00:21.186Z,43.40
2018-02-22T13:03:03.061Z,42.60
2018-02-22T13:05:46.053Z,43.80
2018-02-22T13:08:26.897Z,43.80
2018-02-22T13:11:00.936Z,43.50
2018-02-22T13:13:35.371Z,42.80
2018-02-22T13:16:15.361Z,43.00
2018-02-22T13:19:01.095Z,43.00
2018-02-22T13:21:45.856Z,41.30
2018-02-22T13:24:27.728Z,41.30
2018-02-22T13:27:12.725Z,40.60
2018-02-22T13:29:57.547Z,40.50
2018-02-22T13:32:41.438Z,40.40
2018-02-22T13:35:15.972Z,41.40
2018-02-22T13:38:00.941Z,42.10
2018-02-22T13:40:43.505Z,42.20
2018-02-22T13:43:27.995Z,43.10
2018-02-22T13:46:11.641Z,42.30
2018-02-22T13:49:00.663Z,42.30
2018-02-22T13:51:46.476Z,42.30
2018-02-22T13:54:31.513Z,43.70
2018-02-22T13:57:20.063Z,43.70
2018-02-22T14:00:01.052Z,45.10
2018-02-22T14:02:35.566Z,45.70
2018-02-22T14:05:13.371Z,45.60
2018-02-22T14:07:50.767Z,44.60
2018-02-22T14:10:24.985Z,44.70
2018-02-22T14:13:05.634Z,46.30
2018-02-22T14:15:48.895Z,46.10
2018-02-22T14:18:31.447Z,45.40
2018-02-22T14:21:10.177Z,45.50
2018-02-22T14:23:46.747Z,46.50
2018-02-22T14:26:25.369Z,47.60
2018-02-22T14:29:07.677Z,47.20
2018-02-22T14:31:41.519Z,45.90
2018-02-22T14:34:21.711Z,44.30
2018-02-22T14:37:03.642Z,44.20
2018-02-22T14:39:41.213Z,44.00
2018-02-22T14:42:22.587Z,45.00
2018-02-22T14:45:00.016Z,45.50
2018-02-22T14:47:45.197Z,44.40
2018-02-22T14:50:25.759Z,44.40
2018-02-22T14:53:00.266Z,45.60
2018-02-22T14:55:40.469Z,45.30
2018-02-22T14:58:20.070Z,44.40
2018-02-22T15:01:02.865Z,44.40
2018-02-22T15:03:42.772Z,42.90
2018-02-22T15:06:17.912Z,42.90
2018-02-22T15:08:59.500Z,42.90
2018-02-22T15:11:42.404Z,42.40
2018-02-22T15:14:16.651Z,41.60
2018-02-22T15:16:55.908Z,41.50
2018-02-22T15:19:38.469Z,42.30
2018-02-22T15:22:22.324Z,43.30
2018-02-22T15:24:57.863Z,46.40
2018-02-22T15:27:40.632Z,50.60
2018-02-22T15:30:25.505Z,50.60
2018-02-22T15:33:10.206Z,51.50
2018-02-22T15:35:46.675Z,51.70
2018-02-22T15:38:25.311Z,51.90
2018-02-22T15:41:04.295Z,51.80
2018-02-22T15:43:45.574Z,52.00
2018-02-22T15:46:21.522Z,51.90
2018-02-22T15:49:01.580Z,52.40
2018-02-22T15:51:42.715Z,52.60
2018-02-22T15:54:21.508Z,52.50
2018-02-22T15:57:05.967Z,53.70
2018-02-22T15:59:50.098Z,54.20
2018-02-22T16:02:34.590Z,54.20
2018-02-22T16:05:20.415Z,54.10
2018-02-22T16:08:03.393Z,53.80
2018-02-22T16:10:42.069Z,53.80
2018-02-22T16:13:24.386Z,53.90
2018-02-22T16:16:01.491Z,54.20
2018-02-22T16:18:40.320Z,54.20
2018-02-22T16:21:18.672Z,54.80
2018-02-22T16:23:55.569Z,55.40
2018-02-22T16:26:37.886Z,55.80
2018-02-22T16:29:12.570Z,56.40
2018-02-22T16:31:48.947Z,56.40
2018-02-22T16:34:34.091Z,56.50
2018-02-22T16:37:14.633Z,56.70
2018-02-22T16:39:56.156Z,57.00
2018-02-22T16:42:38.312Z,57.40
2018-02-22T16:45:13.910Z,58.10
2018-02-22T16:47:51.412Z,58.70
2018-02-22T16:50:34.735Z,58.90
2018-02-22T16:53:17.960Z,58.80
2018-02-22T16:56:03.435Z,58.90
2018-02-22T16:58:45.650Z,59.00
2018-02-22T17:01:27.777Z,59.10
2018-02-22T17:04:11.339Z,59.30
2018-02-22T17:06:51.199Z,59.40
2018-02-22T17:09:29.593Z,59.60
2018-02-22T17:12:09.792Z,59.90
2018-02-22T17:14:54.478Z,60.90
2018-02-22T17:17:41.221Z,61.40
2018-02-22T17:20:15.221Z,61.40
2018-02-22T17:22:55.653Z,62.80
2018-02-22T17:25:36.088Z,62.70
2018-02-22T17:28:13.174Z,63.00
2018-02-22T17:30:55.187Z,63.40
2018-02-22T17:33:39.275Z,63.80
2018-02-22T17:36:20.851Z,65.10
2018-02-22T17:39:03.337Z,65.10
2018-02-22T17:41:41.078Z,65.50
2018-02-22T17:44:25.527Z,65.90
2018-02-22T17:47:08.040Z,66.70
2018-02-22T17:49:41.971Z,66.50
2018-02-22T17:52:19.609Z,67.00
2018-02-22T17:54:58.916Z,67.40
2018-02-22T17:57:32.886Z,67.80
2018-02-22T18:00:09.143Z,67.80
2018-02-22T18:02:52.077Z,68.00
2018-02-22T18:05:30.752Z,68.00
2018-02-22T18:08:09.396Z,68.40
2018-02-22T18:10:44.791Z,68.80
2018-02-22T18:13:23.667Z,68.80
2018-02-22T18:16:03.196Z,69.10
2018-02-22T18:18:46.609Z,69.50
2018-02-22T18:21:28.262Z,69.50
2018-02-22T18:24:02.946Z,70.50
2018-02-22T18:26:45.539Z,70.50
2018-02-22T18:29:25.959Z,70.50
2018-02-22T18:32:07.674Z,70.60
2018-02-22T18:34:48.738Z,70.80
2018-02-22T18:37:26.688Z,70.90
2018-02-22T18:40:05.101Z,70.70
2018-02-22T18:42:48.566Z,71.80
2018-02-22T18:45:28.643Z,71.00
2018-02-22T18:48:01.381Z,71.30
2018-02-22T18:50:42.079Z,71.40
2018-02-22T18:53:20.456Z,71.60
2018-02-22T18:56:06.743Z,72.00
2018-02-22T18:58:46.005Z,72.30
2018-02-22T19:01:25.878Z,72.30
2018-02-22T19:04:07.930Z,72.10
2018-02-22T19:06:47.342Z,72.10
2018-02-22T19:09:25.185Z,72.10
2018-02-22T19:12:03.684Z,72.10
2018-02-22T19:14:46.571Z,72.40
2018-02-22T19:17:29.118Z,72.40
2018-02-22T19:20:03.808Z,72.70
2018-02-22T19:22:43.030Z,72.90
2018-02-22T19:25:22.248Z,73.00
2018-02-22T19:28:04.939Z,73.00
2018-02-22T19:30:48.496Z,73.60
2018-02-22T19:33:26.328Z,74.30
2018-02-22T19:36:07.900Z,73.50
2018-02-22T19:38:46.474Z,73.50
2018-02-22T19:41:28.239Z,73.50
2018-02-22T19:44:03.294Z,73.70
2018-02-22T19:46:43.664Z,74.10
2018-02-22T19:49:21.649Z,74.10
2018-02-22T19:51:58.258Z,73.90
2018-02-22T19:54:38.100Z,74.10
2018-02-22T19:57:15.820Z,73.90
2018-02-22T19:59:49.989Z,74.10
2018-02-22T20:02:31.128Z,74.40
2018-02-22T20:05:10.873Z,74.40
2018-02-22T20:07:51.261Z,74.30
2018-02-22T20:10:31.776Z,74.60
2018-02-22T20:13:11.481Z,74.60
2018-02-22T20:15:54.714Z,74.70
2018-02-22T20:18:28.936Z,74.70
2018-02-22T20:21:10.165Z,74.70
2018-02-22T20:23:45.495Z,74.80
2018-02-22T20:26:23.732Z,75.30
2018-02-22T20:29:09.221Z,74.70
2018-02-22T20:31:50.651Z,74.60
2018-02-22T20:34:26.940Z,74.70
2018-02-22T20:37:05.390Z,74.70
2018-02-22T20:39:46.773Z,75.00
2018-02-22T20:42:26.577Z,75.50
2018-02-22T20:45:05.326Z,74.80
2018-02-22T20:47:44.378Z,75.00
2018-02-22T20:50:22.412Z,75.20
2018-02-22T20:53:04.846Z,75.10
2018-02-22T20:55:47.109Z,75.00
2018-02-22T20:58:28.856Z,74.90
2018-02-22T21:01:09.011Z,75.10
2018-02-22T21:03:44.867Z,75.20
2018-02-22T21:06:27.231Z,75.40
2018-02-22T21:09:10.220Z,75.20
2018-02-22T21:11:47.783Z,75.40
2018-02-22T21:14:25.539Z,75.50
2018-02-22T21:17:05.207Z,75.80
2018-02-22T21:19:43.484Z,75.70
2018-02-22T21:22:20.016Z,75.90
2018-02-22T21:24:53.662Z,75.80
2018-02-22T21:27:33.078Z,75.80
2018-02-22T21:30:16.667Z,75.70
2018-02-22T21:32:58.046Z,75.80
2018-02-22T21:35:36.844Z,75.80
2018-02-22T21:38:17.937Z,75.60
2018-02-22T21:40:59.540Z,75.80
2018-02-22T21:43:41.743Z,75.40
2018-02-22T21:46:19.804Z,75.70
2018-02-22T21:48:58.998Z,75.70
2018-02-22T21:51:38.029Z,75.60
2018-02-22T21:54:18.467Z,75.70
2018-02-22T21:56:58.051Z,75.70
2018-02-22T21:59:32.136Z,75.90
2018-02-22T22:02:11.688Z,75.90
2018-02-22T22:04:52.261Z,75.70
2018-02-22T22:07:31.363Z,75.90
2018-02-22T22:10:11.819Z,76.00
2018-02-22T22:12:49.418Z,76.00
2018-02-22T22:15:28.353Z,75.90
2018-02-22T22:18:08.477Z,75.80
2018-02-22T22:20:45.818Z,75.80
2018-02-22T22:23:24.738Z,75.60
2018-02-22T22:26:09.108Z,75.90
2018-02-22T22:28:52.287Z,75.90
2018-02-22T22:31:25.844Z,75.90
2018-02-22T22:34:05.654Z,75.70
2018-02-22T22:36:44.833Z,75.90
2018-02-22T22:39:23.003Z,75.90
2018-02-22T22:41:56.716Z,76.30
2018-02-22T22:44:37.268Z,76.50
2018-02-22T22:47:19.027Z,76.50
2018-02-22T22:49:59.872Z,76.50
2018-02-22T22:52:42.253Z,76.50
2018-02-22T22:55:21.696Z,76.20
2018-02-22T22:58:00.094Z,76.20
2018-02-22T23:00:38.056Z,76.60
2018-02-22T23:03:23.436Z,76.50
2018-02-22T23:06:09.554Z,76.80
2018-02-22T23:08:51.998Z,77.20
2018-02-22T23:11:34.396Z,77.20
2018-02-22T23:14:15.590Z,77.30
2018-02-22T23:16:56.823Z,77.20
2018-02-22T23:19:40.458Z,77.30
2018-02-22T23:22:23.158Z,77.70
2018-02-22T23:24:58.775Z,77.10
2018-02-22T23:30:27.786Z,78.00
2018-02-22T23:33:07.052Z,78.30
2018-02-22T23:35:47.052Z,78.60
2018-02-22T23:38:25.409Z,79.10
2018-02-22T23:41:09.445Z,79.30
2018-02-22T23:43:49.045Z,79.70
2018-02-22T23:46:27.791Z,79.80
2018-02-22T23:49:05.141Z,79.90
2018-02-22T23:51:47.222Z,80.00
2018-02-22T23:54:27.179Z,80.60
2018-02-22T23:57:07.668Z,81.00
2018-02-22T23:59:47.189Z,81.00
